Terminal Aerodrome Forecast
Issued by NWS

Home | Current Version | Previous Version | Text Only | Print | Product List | Glossary Off
Versions: 1 2 3 4 5 6 7 8 9 10 11 12 13 14 15 16 17 18 19 20 21 22 23 24

162
FTUS43 KGRB 210520
TAFCWA
TAF
KCWA 210520Z 2106/2206 26003KT P6SM SCT035 BKN070
     FM211000 VRB03KT 4SM BR SCT050 BKN150
      TEMPO 2110/2113 2SM BR
     FM211300 14003KT P6SM SCT040 BKN090
     FM211800 20005KT P6SM SCT040 BKN090 PROB30 2120/2202 3SM -TSRA
      BKN040CB
     FM220200 22004KT 6SM -SHRA SCT025 OVC040
      TEMPO 2202/2206 4SM -TSRA BKN025CB
      AMD LTD TO CLD VIS AND WIND TIL 211100=

USA.gov is the U.S. government's official web portal to all federal, state and local government web resources and services.